Time;durP1;ratioP1;P1;durP2;ratioP2;P2;SDS_P1;SDS_P2;PMS_P1;PMS_P2;Temp;Humidity;BMP_temperature;BMP_pressure;BME280_temperature;BME280_humidity;BME280_pressure;Samples;Min_cycle;Max_cycle;Signal;HPM_P1;HPM_P2
2023/07/22 00:00:09;;;;;;;2.45;1.63;;;;;;;11.65;100.00;101299.69;5041307;28;20131;-86
2023/07/22 00:02:54;;;;;;;2.88;1.67;;;;;;;11.61;100.00;101298.94;5039235;28;20040;-85
2023/07/22 00:05:40;;;;;;;6.60;2.33;;;;;;;11.61;100.00;101301.59;5040523;28;20070;-86
2023/07/22 00:08:26;;;;;;;4.80;2.17;;;;;;;11.58;100.00;101301.75;5040378;28;20064;-87
2023/07/22 00:11:11;;;;;;;2.88;2.00;;;;;;;11.54;100.00;101297.50;5051028;28;20045;-85
2023/07/22 00:13:57;;;;;;;2.88;2.00;;;;;;;11.49;100.00;101299.50;5038923;28;20047;-85
2023/07/22 00:16:46;;;;;;;3.72;2.10;;;;;;;11.45;100.00;101293.47;5022640;28;20491;-87
2023/07/22 00:19:32;;;;;;;3.85;2.40;;;;;;;11.40;100.00;101279.53;5041233;28;20041;-87
2023/07/22 00:22:20;;;;;;;4.72;2.38;;;;;;;11.39;100.00;101285.75;5026840;28;20033;-86
2023/07/22 00:25:10;;;;;;;3.75;1.95;;;;;;;11.34;100.00;101285.94;5026468;28;20052;-87
2023/07/22 00:27:57;;;;;;;4.40;1.98;;;;;;;11.31;100.00;101279.91;5024600;28;20124;-87
2023/07/22 00:30:43;;;;;;;3.60;1.92;;;;;;;11.31;100.00;101280.78;5026597;28;20055;-87
2023/07/22 00:33:29;;;;;;;4.57;2.00;;;;;;;11.31;100.00;101279.91;5029124;28;20130;-88
2023/07/22 00:36:14;;;;;;;2.17;1.42;;;;;;;11.32;100.00;101281.66;5003224;28;20045;-87
2023/07/22 00:39:01;;;;;;;3.42;1.85;;;;;;;11.30;100.00;101275.53;5040158;28;20044;-84
2023/07/22 00:41:47;;;;;;;4.20;2.00;;;;;;;11.25;100.00;101279.25;5040042;28;20046;-85
2023/07/22 00:44:33;;;;;;;5.50;1.90;;;;;;;11.23;100.00;101270.47;5040276;28;20056;-85
2023/07/22 00:47:19;;;;;;;3.22;1.83;;;;;;;11.21;100.00;101275.00;5041415;28;22182;-86
2023/07/22 00:50:07;;;;;;;4.07;1.80;;;;;;;11.20;100.00;101277.69;5025584;28;20040;-87
2023/07/22 00:52:52;;;;;;;4.53;1.85;;;;;;;11.18;100.00;101283.06;5041460;28;20120;-86
2023/07/22 00:55:40;;;;;;;3.85;1.92;;;;;;;11.14;100.00;101279.69;5025313;28;20051;-85
2023/07/22 00:58:26;;;;;;;7.07;1.70;;;;;;;11.13;100.00;101269.16;5038894;28;20098;-86
2023/07/22 01:01:12;;;;;;;4.80;1.80;;;;;;;11.10;100.00;101271.91;5039673;28;20041;-87
2023/07/22 01:03:58;;;;;;;2.90;2.00;;;;;;;11.10;100.00;101269.25;5028682;28;20109;-85
2023/07/22 01:06:44;;;;;;;4.13;2.17;;;;;;;11.09;100.00;101264.88;5009673;28;20072;-86
2023/07/22 01:09:37;;;;;;;4.75;1.70;;;;;;;11.08;100.00;101264.03;5023352;28;20048;-85
2023/07/22 01:12:23;;;;;;;2.90;1.85;;;;;;;11.07;100.00;101269.41;5038995;28;20423;-85
2023/07/22 01:15:09;;;;;;;3.35;1.80;;;;;;;11.08;100.00;101264.03;5039155;28;20399;-85
2023/07/22 01:17:56;;;;;;;3.20;2.00;;;;;;;11.07;100.00;101270.25;5022916;28;20399;-86
2023/07/22 01:20:42;;;;;;;2.58;1.50;;;;;;;11.07;100.00;101266.75;5040418;28;20134;-85
2023/07/22 01:23:28;;;;;;;3.50;1.88;;;;;;;11.05;100.00;101260.66;5024581;28;20041;-85
2023/07/22 01:26:14;;;;;;;4.50;1.95;;;;;;;11.04;100.00;101257.13;5025279;28;20044;-85
2023/07/22 01:29:07;;;;;;;3.58;1.80;;;;;;;11.05;100.00;101252.72;5039710;28;20046;-85
2023/07/22 01:31:54;;;;;;;3.83;2.00;;;;;;;11.03;100.00;101257.19;5006959;28;20411;-84
2023/07/22 01:34:40;;;;;;;3.53;2.05;;;;;;;11.00;100.00;101256.41;5031317;28;20044;-85
2023/07/22 01:37:25;;;;;;;3.08;1.92;;;;;;;10.98;100.00;101262.69;5029266;28;20072;-85
2023/07/22 01:40:11;;;;;;;4.80;2.08;;;;;;;10.97;100.00;101258.31;5030813;28;20044;-87
2023/07/22 01:42:57;;;;;;;4.88;1.98;;;;;;;10.94;100.00;101255.75;5043700;28;20041;-86
2023/07/22 01:45:43;;;;;;;4.40;2.10;;;;;;;10.96;100.00;101249.47;5042511;28;20071;-85
2023/07/22 01:48:29;;;;;;;5.53;2.17;;;;;;;10.98;100.00;101252.09;5029220;28;20041;-85
2023/07/22 01:51:14;;;;;;;3.95;2.08;;;;;;;10.98;100.00;101258.25;5042337;28;20045;-86
2023/07/22 01:54:00;;;;;;;5.13;2.30;;;;;;;10.98;100.00;101252.09;5032138;28;20051;-84
2023/07/22 01:56:46;;;;;;;3.50;2.00;;;;;;;11.00;100.00;101256.41;5042330;28;20040;-84
2023/07/22 01:59:32;;;;;;;4.07;2.30;;;;;;;10.98;100.00;101249.44;5014480;28;20037;-85
2023/07/22 02:02:19;;;;;;;3.75;2.17;;;;;;;10.99;100.00;101253.78;5042427;28;20044;-86
2023/07/22 02:05:06;;;;;;;3.75;2.15;;;;;;;10.99;100.00;101254.69;5026503;28;20056;-84
2023/07/22 02:07:51;;;;;;;4.50;2.15;;;;;;;11.00;100.00;101252.88;5043126;28;20064;-85
2023/07/22 02:10:37;;;;;;;5.78;2.33;;;;;;;11.03;100.00;101251.88;5041689;28;20032;-85
2023/07/22 02:13:23;;;;;;;5.15;2.55;;;;;;;11.05;100.00;101244.75;5027834;28;21087;-84
2023/07/22 02:16:11;;;;;;;5.03;2.28;;;;;;;11.08;100.00;101241.97;5027618;28;20041;-85
2023/07/22 02:18:57;;;;;;;5.40;2.63;;;;;;;11.12;100.00;101248.88;5041961;28;20041;-85
2023/07/22 02:21:45;;;;;;;5.05;2.38;;;;;;;11.14;100.00;101237.28;5055727;28;20922;-85
2023/07/22 02:24:31;;;;;;;3.83;2.38;;;;;;;11.16;100.00;101239.84;5043000;28;22016;-85
2023/07/22 02:27:17;;;;;;;4.65;2.15;;;;;;;11.20;100.00;101240.59;5042718;28;20040;-84
2023/07/22 02:30:04;;;;;;;5.47;2.65;;;;;;;11.21;100.00;101237.00;5028459;28;20075;-85
2023/07/22 02:32:50;;;;;;;4.25;2.00;;;;;;;11.20;100.00;101246.75;5042259;28;20120;-83
2023/07/22 02:35:36;;;;;;;4.38;2.35;;;;;;;11.18;100.00;101235.38;5009577;28;20553;-84
2023/07/22 02:38:21;;;;;;;4.03;2.10;;;;;;;11.14;100.00;101229.34;5028922;28;20043;-84
2023/07/22 02:41:07;;;;;;;4.97;2.10;;;;;;;11.14;100.00;101236.41;5013507;28;20032;-83
2023/07/22 02:43:53;;;;;;;4.28;2.38;;;;;;;11.12;100.00;101240.94;5026677;28;20165;-84
2023/07/22 02:46:39;;;;;;;4.68;2.20;;;;;;;11.09;100.00;101239.25;5022880;28;21072;-85
2023/07/22 02:49:25;;;;;;;4.22;2.20;;;;;;;11.11;100.00;101245.34;5023707;28;20037;-86
2023/07/22 02:52:10;;;;;;;3.20;1.90;;;;;;;11.10;100.00;101234.81;5022757;28;20619;-84
2023/07/22 02:55:06;;;;;;;3.70;1.80;;;;;;;11.12;100.00;101235.63;5022046;28;20139;-84
2023/07/22 02:57:51;;;;;;;5.95;2.50;;;;;;;11.11;100.00;101232.09;5024444;28;20037;-86
2023/07/22 03:00:37;;;;;;;3.30;2.30;;;;;;;11.16;100.00;101239.84;5020685;28;20557;-84
2023/07/22 03:03:23;;;;;;;5.07;2.30;;;;;;;11.18;100.00;101240.69;5020308;28;20080;-83
2023/07/22 03:06:09;;;;;;;8.63;2.28;;;;;;;11.23;100.00;101240.47;5020974;28;20033;-85
2023/07/22 03:08:55;;;;;;;4.05;2.33;;;;;;;11.28;100.00;101244.66;5048138;28;20405;-85
2023/07/22 03:11:40;;;;;;;3.92;2.08;;;;;;;11.35;100.00;101244.41;5021708;28;20041;-86
2023/07/22 03:14:26;;;;;;;4.85;2.47;;;;;;;11.37;100.00;101255.78;5022316;28;20033;-84
2023/07/22 03:17:16;;;;;;;5.97;2.55;;;;;;;11.36;100.00;101256.72;5035099;28;20140;-86
2023/07/22 03:20:05;;;;;;;5.47;2.90;;;;;;;11.38;100.00;101257.50;5020122;28;20128;-85
2023/07/22 03:22:51;;;;;;;6.57;2.97;;;;;;;11.39;100.00;101252.16;5024157;28;20060;-86
2023/07/22 03:25:36;;;;;;;4.35;2.70;;;;;;;11.44;100.00;101253.75;5019742;28;20037;-85
2023/07/22 03:28:22;;;;;;;6.97;3.10;;;;;;;11.45;100.00;101250.16;5050313;28;20045;-86
2023/07/22 03:31:08;;;;;;;5.65;3.03;;;;;;;11.48;100.00;101256.19;5023819;28;20037;-85
2023/07/22 03:33:54;;;;;;;6.80;3.15;;;;;;;11.53;100.00;101254.22;5022026;28;20040;-85
2023/07/22 03:36:40;;;;;;;7.55;3.60;;;;;;;11.58;100.00;101251.38;5008583;28;20037;-85
2023/07/22 03:39:25;;;;;;;7.20;3.60;;;;;;;11.62;100.00;101250.31;5021187;28;20045;-86
2023/07/22 03:42:11;;;;;;;8.85;4.00;;;;;;;11.69;100.00;101248.25;5022509;28;20042;-86
2023/07/22 03:44:57;;;;;;;10.57;4.00;;;;;;;11.74;100.00;101248.91;5035656;28;20159;-83
2023/07/22 03:47:47;;;;;;;8.18;3.92;;;;;;;11.80;100.00;101250.41;5021286;28;20045;-84
2023/07/22 03:50:33;;;;;;;10.32;4.20;;;;;;;11.86;100.00;101249.28;5008735;28;20124;-85
2023/07/22 03:53:18;;;;;;;8.82;4.72;;;;;;;11.91;100.00;101245.50;5020837;28;20043;-86
2023/07/22 03:56:04;;;;;;;11.85;5.20;;;;;;;11.95;100.00;101247.06;5021463;28;20315;-86
2023/07/22 03:58:50;;;;;;;9.95;4.80;;;;;;;12.03;100.00;101252.09;5008389;28;20126;-84
2023/07/22 04:01:36;;;;;;;9.98;5.03;;;;;;;12.05;100.00;101247.56;4996125;28;20029;-83
2023/07/22 04:04:22;;;;;;;11.15;4.95;;;;;;;12.11;100.00;101253.53;5032502;28;20115;-84
2023/07/22 04:07:08;;;;;;;11.73;5.47;;;;;;;12.14;100.00;101242.78;5020322;28;20932;-84
2023/07/22 04:09:54;;;;;;;13.48;5.30;;;;;;;12.18;100.00;101247.00;5019951;28;20049;-84
2023/07/22 04:12:40;;;;;;;9.32;5.13;;;;;;;12.20;100.00;101238.03;5019464;28;20547;-84
2023/07/22 04:15:32;;;;;;;12.52;5.32;;;;;;;12.27;100.00;101238.63;5020217;28;20497;-84
2023/07/22 04:18:19;;;;;;;13.60;5.13;;;;;;;12.32;100.00;101241.91;5019594;28;20038;-85
2023/07/22 04:21:04;;;;;;;10.45;5.40;;;;;;;12.37;100.00;101241.72;5046762;28;20034;-85
2023/07/22 04:23:50;;;;;;;11.70;4.97;;;;;;;12.40;100.00;101240.69;5020529;28;20098;-85
2023/07/22 04:26:36;;;;;;;11.32;4.93;;;;;;;12.45;100.00;101239.56;5020402;28;20052;-85
2023/07/22 04:29:21;;;;;;;11.18;5.50;;;;;;;12.49;100.00;101238.47;5018753;28;20126;-85
2023/07/22 04:32:11;;;;;;;12.98;5.80;;;;;;;12.52;100.00;101244.59;5020234;28;20563;-84
2023/07/22 04:34:56;;;;;;;11.80;5.50;;;;;;;12.55;100.00;101239.13;5020463;28;20033;-83
2023/07/22 04:37:43;;;;;;;12.85;6.32;;;;;;;12.58;100.00;101231.03;5019975;28;20048;-85
2023/07/22 04:40:32;;;;;;;12.48;5.68;;;;;;;12.61;100.00;101241.47;5019661;28;20064;-84
2023/07/22 04:43:18;;;;;;;10.65;5.70;;;;;;;12.67;100.00;101240.31;5005281;28;20392;-84
2023/07/22 04:46:04;;;;;;;12.77;6.00;;;;;;;12.72;100.00;101238.31;5021670;28;20065;-85
2023/07/22 04:48:50;;;;;;;12.73;5.97;;;;;;;12.75;100.00;101228.41;5033001;28;20041;-84
2023/07/22 04:51:35;;;;;;;17.10;6.30;;;;;;;12.78;100.00;101224.72;5021295;28;20470;-84
2023/07/22 04:54:21;;;;;;;13.48;6.18;;;;;;;12.83;100.00;101219.19;5020615;28;20047;-85
2023/07/22 04:57:07;;;;;;;15.02;6.20;;;;;;;12.84;100.00;101227.09;5020583;28;20381;-85
2023/07/22 04:59:53;;;;;;;17.85;6.57;;;;;;;12.87;100.00;101223.44;5019174;28;20038;-85
2023/07/22 05:02:38;;;;;;;12.02;5.25;;;;;;;12.90;100.00;101220.59;5020298;28;20168;-85
2023/07/22 05:05:24;;;;;;;12.25;5.80;;;;;;;12.92;100.00;101225.84;5024401;28;20037;-85
2023/07/22 05:08:10;;;;;;;12.35;5.78;;;;;;;12.95;100.00;101228.34;5022668;28;20061;-84
2023/07/22 05:10:56;;;;;;;11.60;5.70;;;;;;;12.97;100.00;101227.34;5024214;28;20037;-84
2023/07/22 05:13:41;;;;;;;14.77;5.35;;;;;;;13.01;100.00;101228.91;5023240;28;20041;-84
2023/07/22 05:16:27;;;;;;;12.32;6.05;;;;;;;13.03;100.00;101223.53;5023329;28;20124;-85
2023/07/22 05:19:13;;;;;;;12.40;5.45;;;;;;;13.06;100.00;101225.19;5021160;28;20061;-85
2023/07/22 05:21:59;;;;;;;10.68;5.25;;;;;;;13.08;100.00;101221.47;5007899;28;20045;-85
2023/07/22 05:24:44;;;;;;;12.75;6.40;;;;;;;13.09;100.00;101233.88;5023347;28;20074;-84
2023/07/22 05:27:30;;;;;;;11.18;5.72;;;;;;;13.14;100.00;101229.16;5024716;28;20041;-84
2023/07/22 05:30:16;;;;;;;12.55;5.65;;;;;;;13.17;100.00;101231.69;5022805;28;20045;-85
2023/07/22 05:33:02;;;;;;;15.02;6.55;;;;;;;13.22;100.00;101225.25;5021604;28;20106;-84
2023/07/22 05:35:47;;;;;;;13.48;6.75;;;;;;;13.26;100.00;101221.50;5024772;28;20037;-84
2023/07/22 05:38:33;;;;;;;14.55;7.25;;;;;;;13.33;100.00;101228.22;5022018;28;20033;-84
2023/07/22 05:41:19;;;;;;;18.27;6.60;;;;;;;13.36;100.00;101228.09;5009490;28;20618;-85
2023/07/22 05:44:05;;;;;;;14.75;7.10;;;;;;;13.41;100.00;101226.03;5024541;28;20069;-85
2023/07/22 05:46:50;;;;;;;17.83;7.13;;;;;;;13.46;100.00;101227.63;5023202;28;20046;-85
2023/07/22 05:49:36;;;;;;;17.20;8.10;;;;;;;13.50;100.00;101230.06;5025142;28;20044;-85
2023/07/22 05:52:22;;;;;;;15.32;7.50;;;;;;;13.56;100.00;101226.22;5024252;28;20120;-84
2023/07/22 05:55:08;;;;;;;17.13;7.30;;;;;;;13.66;100.00;101226.59;5022434;28;20048;-84
2023/07/22 05:57:54;;;;;;;19.40;7.38;;;;;;;13.74;100.00;101223.53;5022872;28;20996;-84
2023/07/22 06:00:39;;;;;;;17.50;7.93;;;;;;;13.84;100.00;101222.13;5022212;28;20050;-85
2023/07/22 06:03:25;;;;;;;17.02;7.45;;;;;;;13.88;100.00;101218.34;5021121;28;20060;-84
2023/07/22 06:06:11;;;;;;;17.38;7.47;;;;;;;13.95;100.00;101211.75;5035244;28;20066;-84
2023/07/22 06:08:57;;;;;;;15.70;7.43;;;;;;;14.01;100.00;101212.34;5021887;28;20045;-85
2023/07/22 06:11:42;;;;;;;14.20;7.10;;;;;;;14.06;100.00;101205.84;5021353;28;20563;-84
2023/07/22 06:14:28;;;;;;;16.23;7.60;;;;;;;14.10;100.00;101214.50;5048395;28;20138;-84
2023/07/22 06:17:14;;;;;;;16.08;7.18;;;;;;;14.17;100.00;101210.56;5020260;28;20041;-84
2023/07/22 06:20:01;;;;;;;16.75;7.65;;;;;;;14.25;100.00;101205.69;5021806;28;20492;-85
2023/07/22 06:22:47;;;;;;;20.10;8.27;;;;;;;14.30;100.00;101205.44;5020791;28;20175;-84
2023/07/22 06:25:32;;;;;;;16.85;8.10;;;;;;;14.37;100.00;101213.94;5037393;28;20036;-84
2023/07/22 06:28:18;;;;;;;19.50;8.15;;;;;;;14.42;100.00;101208.38;5022273;28;20541;-84
2023/07/22 06:31:04;;;;;;;17.25;8.23;;;;;;;14.45;100.00;101217.06;5022937;28;20116;-84
2023/07/22 06:33:49;;;;;;;17.55;8.07;;;;;;;14.51;100.00;101214.00;5022672;28;20037;-83
2023/07/22 06:36:35;;;;;;;17.70;8.57;;;;;;;14.53;100.00;101214.81;5022127;28;20427;-84
2023/07/22 06:39:21;;;;;;;19.25;8.15;;;;;;;14.58;100.00;101216.34;5018994;28;20045;-85
2023/07/22 06:42:07;;;;;;;18.17;7.90;;;;;;;14.64;100.00;101211.53;5022115;28;20127;-84
2023/07/22 06:44:53;;;;;;;16.17;8.40;;;;;;;14.69;100.00;101203.28;5027317;28;20059;-85
2023/07/22 06:47:38;;;;;;;18.60;8.10;;;;;;;14.76;100.00;101207.34;5042328;28;20499;-83
2023/07/22 06:50:24;;;;;;;18.35;8.18;;;;;;;14.80;100.00;101218.69;5040434;28;20060;-83
2023/07/22 06:53:10;;;;;;;17.67;8.27;;;;;;;14.84;100.00;101216.69;5042020;28;20048;-83
2023/07/22 06:55:56;;;;;;;18.85;8.75;;;;;;;14.88;100.00;101221.75;5017750;28;20047;-83
2023/07/22 06:58:44;;;;;;;16.88;7.95;;;;;;;14.95;100.00;101219.59;5040230;28;20045;-84
2023/07/22 07:01:30;;;;;;;15.88;8.32;;;;;;;15.04;100.00;101218.22;5027848;28;20494;-84
2023/07/22 07:04:16;;;;;;;20.27;8.20;;;;;;;15.14;100.00;101213.19;5013847;28;20056;-83
2023/07/22 07:07:02;;;;;;;14.27;7.65;;;;;;;15.20;100.00;101210.19;5027132;28;20574;-83
2023/07/22 07:09:48;;;;;;;14.95;7.45;;;;;;;15.29;100.00;101214.06;5041310;28;20045;-83
2023/07/22 07:12:34;;;;;;;12.88;7.10;;;;;;;15.37;100.00;101221.63;5041970;28;20071;-83
2023/07/22 07:15:20;;;;;;;15.38;7.20;;;;;;;15.48;100.00;101213.84;5042608;28;20036;-84
2023/07/22 07:18:05;;;;;;;15.50;7.20;;;;;;;15.64;100.00;101199.56;5014038;28;20079;-84
2023/07/22 07:20:51;;;;;;;12.52;7.50;;;;;;;15.79;100.00;101201.28;5017243;28;21680;-84
2023/07/22 07:23:37;;;;;;;13.43;6.85;;;;;;;15.95;100.00;101209.22;5039229;28;20059;-83
2023/07/22 07:26:22;;;;;;;13.73;6.88;;;;;;;16.05;100.00;101204.19;5023946;28;20045;-84
2023/07/22 07:29:08;;;;;;;10.43;6.25;;;;;;;16.11;100.00;101205.59;5040275;28;20033;-83
2023/07/22 07:31:54;;;;;;;9.88;6.07;;;;;;;16.21;100.00;101211.22;5040107;28;20045;-84
2023/07/22 07:34:40;;;;;;;10.30;6.00;;;;;;;16.29;100.00;101208.94;5040293;28;20205;-83
2023/07/22 07:37:26;;;;;;;13.68;6.40;;;;;;;16.43;100.00;101208.91;5025820;28;20041;-83
2023/07/22 07:40:12;;;;;;;10.68;5.55;;;;;;;16.63;100.00;101213.91;5040861;28;20384;-84
2023/07/22 07:42:58;;;;;;;9.63;5.72;;;;;;;16.82;100.00;101205.50;5040609;28;20135;-83
2023/07/22 07:45:44;;;;;;;10.25;5.80;;;;;;;16.95;100.00;101203.72;5012032;28;20060;-84
2023/07/22 07:48:30;;;;;;;10.35;5.18;;;;;;;17.03;100.00;101199.72;5041213;28;20045;-83
2023/07/22 07:51:17;;;;;;;8.82;5.10;;;;;;;17.05;100.00;101200.50;5025075;28;20064;-84
2023/07/22 07:54:04;;;;;;;9.80;4.93;;;;;;;17.04;100.00;101204.97;5025392;28;20068;-83
2023/07/22 07:56:49;;;;;;;8.65;5.20;;;;;;;17.04;100.00;101196.94;5040287;28;20126;-83
2023/07/22 07:59:35;;;;;;;8.88;4.80;;;;;;;17.05;100.00;101195.16;5040136;28;20039;-83
2023/07/22 08:02:22;;;;;;;9.43;5.40;;;;;;;17.03;100.00;101194.38;5039787;28;20036;-84
2023/07/22 08:05:08;;;;;;;9.57;5.18;;;;;;;17.01;100.00;101197.13;5027233;28;20040;-83
2023/07/22 08:07:54;;;;;;;7.72;4.80;;;;;;;16.96;100.00;101185.88;5040034;28;20056;-83
2023/07/22 08:10:40;;;;;;;8.70;4.97;;;;;;;16.91;100.00;101198.69;5040315;28;20047;-84
2023/07/22 08:13:27;;;;;;;10.38;4.95;;;;;;;16.81;100.00;101190.44;5040034;28;20037;-83
2023/07/22 08:16:13;;;;;;;8.73;5.20;;;;;;;16.81;100.00;101198.44;5027888;28;20201;-85
2023/07/22 08:19:01;;;;;;;8.40;5.15;;;;;;;16.80;100.00;101200.28;5015009;28;20033;-91
2023/07/22 08:21:49;;;;;;;10.23;5.40;;;;;;;16.81;100.00;101201.13;5017373;28;20102;-89
2023/07/22 08:24:35;;;;;;;11.38;5.40;;;;;;;16.82;100.00;101197.50;5041362;28;20045;-92
2023/07/22 08:27:23;;;;;;;8.63;4.78;;;;;;;16.78;100.00;101199.50;5040322;28;20040;-92
2023/07/22 08:30:09;;;;;;;10.10;5.18;;;;;;;16.75;100.00;101201.53;5039094;28;20099;-91
2023/07/22 08:32:55;;;;;;;12.43;6.30;;;;;;;16.73;100.00;101201.66;5024501;28;20060;-81
2023/07/22 08:35:41;;;;;;;12.88;7.28;;;;;;;16.63;100.00;101204.06;5028458;28;20076;-88
2023/07/22 08:38:27;;;;;;;18.83;9.73;;;;;;;16.39;100.00;101210.03;5050353;28;20604;-90
2023/07/22 08:41:16;;;;;;;23.65;10.85;;;;;;;15.99;100.00;101213.44;5004586;28;20033;-84
2023/07/22 08:44:04;;;;;;;21.60;10.43;;;;;;;15.68;100.00;101206.44;5036557;28;20048;-87
2023/07/22 08:46:57;;;;;;;23.00;10.80;;;;;;;15.53;100.00;101209.06;5036053;28;20201;-90
2023/07/22 08:49:46;;;;;;;23.38;10.73;;;;;;;15.52;100.00;101203.84;5024777;28;20045;-87
2023/07/22 08:52:33;;;;;;;22.88;11.77;;;;;;;15.52;100.00;101207.38;5022136;28;20037;-87
2023/07/22 08:55:19;;;;;;;25.45;12.25;;;;;;;15.51;100.00;101207.47;5023426;28;20056;-83
2023/07/22 08:58:05;;;;;;;27.00;11.95;;;;;;;15.45;100.00;101204.22;5024803;28;21916;-83
2023/07/22 09:00:51;;;;;;;20.30;10.32;;;;;;;15.43;100.00;101210.59;5039519;28;20041;-83
2023/07/22 09:03:38;;;;;;;22.73;10.35;;;;;;;15.34;100.00;101196.88;5039784;28;20187;-85
2023/07/22 09:06:23;;;;;;;20.02;9.88;;;;;;;15.30;100.00;101211.34;5013034;28;20043;-85
2023/07/22 09:09:10;;;;;;;17.02;8.93;;;;;;;15.28;100.00;101209.69;5051154;28;20037;-84
2023/07/22 09:11:56;;;;;;;18.55;9.85;;;;;;;15.26;100.00;101212.44;5053506;28;20191;-84
2023/07/22 09:14:43;;;;;;;45.03;21.70;;;;;;;15.29;100.00;101206.94;5053977;28;20075;-86
2023/07/22 09:17:32;;;;;;;23.98;11.00;;;;;;;15.34;100.00;101206.66;5026992;28;20041;-85
2023/07/22 09:20:19;;;;;;;18.73;10.45;;;;;;;15.34;100.00;101204.00;5011052;28;20044;-87
2023/07/22 09:23:05;;;;;;;18.08;9.05;;;;;;;15.43;100.00;101199.94;5016428;28;21969;-87
2023/07/22 09:25:54;;;;;;;19.90;9.27;;;;;;;15.46;100.00;101205.06;5022962;28;20029;-86
2023/07/22 09:28:52;;;;;;;36.78;17.35;;;;;;;15.51;100.00;101200.31;5012340;28;20040;-86
2023/07/22 09:31:52;;;;;;;28.38;14.95;;;;;;;15.57;100.00;101193.75;5040851;28;20387;-86
2023/07/22 09:34:38;;;;;;;29.95;15.70;;;;;;;15.67;100.00;101192.22;5053760;28;20152;-85
2023/07/22 09:37:37;;;;;;;12.00;7.03;;;;;;;15.78;100.00;101188.03;5038080;28;20668;-86
2023/07/22 09:40:25;;;;;;;6.88;4.70;;;;;;;15.75;100.00;101189.09;5023657;28;20108;-86
2023/07/22 09:43:17;;;;;;;4.85;3.78;;;;;;;15.70;100.00;101193.84;5012141;28;20045;-85
2023/07/22 09:46:08;;;;;;;5.25;3.65;;;;;;;15.63;100.00;101187.19;5006966;28;20056;-85
2023/07/22 09:48:54;;;;;;;6.53;4.25;;;;;;;15.53;100.00;101186.88;5007676;28;20048;-88
2023/07/22 09:51:40;;;;;;;6.40;3.83;;;;;;;15.45;100.00;101185.53;5022407;28;20128;-84
2023/07/22 09:54:29;;;;;;;7.20;4.50;;;;;;;15.40;100.00;101184.09;5028119;28;21515;-84
2023/07/22 09:57:15;;;;;;;7.00;4.00;;;;;;;15.34;100.00;101185.34;5021227;28;20068;-85
2023/07/22 10:00:01;;;;;;;7.43;4.22;;;;;;;15.31;100.00;101197.03;5024086;28;20041;-86
2023/07/22 10:02:51;;;;;;;6.35;4.72;;;;;;;15.30;100.00;101203.31;5026561;28;20040;-85
2023/07/22 10:05:38;;;;;;;9.05;5.82;;;;;;;15.26;100.00;101195.59;5037728;28;20060;-84
2023/07/22 10:08:24;;;;;;;7.90;4.70;;;;;;;15.27;100.00;101202.66;5051548;28;20669;-86
2023/07/22 10:11:11;;;;;;;7.72;4.18;;;;;;;15.27;100.00;101208.84;5021805;28;20060;-85
2023/07/22 10:13:58;;;;;;;7.35;4.80;;;;;;;15.26;100.00;101201.78;5012158;28;20028;-88
2023/07/22 10:16:44;;;;;;;8.50;5.72;;;;;;;15.33;100.00;101196.94;5047548;28;20072;-84
2023/07/22 10:19:31;;;;;;;9.85;6.70;;;;;;;15.34;100.00;101202.22;5042820;28;20051;-90
2023/07/22 10:22:19;;;;;;;11.30;6.40;;;;;;;15.32;100.00;101195.25;5042502;28;20033;-89
2023/07/22 10:25:08;;;;;;;7.30;4.88;;;;;;;15.34;100.00;101196.00;5035631;28;20056;-87
2023/07/22 10:27:54;;;;;;;7.20;4.03;;;;;;;15.32;100.00;101212.09;5027828;28;21041;-87
2023/07/22 10:30:40;;;;;;;5.63;4.28;;;;;;;15.26;100.00;101207.13;5015029;28;20048;-87
2023/07/22 10:33:29;;;;;;;8.18;4.32;;;;;;;15.12;100.00;101217.75;5028969;28;20738;-83
2023/07/22 10:36:18;;;;;;;6.53;4.40;;;;;;;15.04;100.00;101207.56;5022037;28;20106;-82
2023/07/22 10:39:07;;;;;;;6.03;4.20;;;;;;;14.95;100.00;101206.28;5022532;28;20044;-83
2023/07/22 10:42:06;;;;;;;8.38;4.78;;;;;;;14.91;100.00;101207.38;5037729;28;20032;-82
2023/07/22 10:44:51;;;;;;;8.90;5.00;;;;;;;14.86;100.00;101210.31;5010688;28;20032;-80
2023/07/22 10:47:37;;;;;;;8.40;5.75;;;;;;;14.77;100.00;101195.72;5020849;28;20053;-79
2023/07/22 10:50:39;;;;;;;6.70;4.85;;;;;;;14.75;100.00;101194.09;5031528;28;20048;-80
2023/07/22 10:53:25;;;;;;;7.65;5.13;;;;;;;14.71;100.00;101192.53;5037827;28;20055;-81
2023/07/22 10:56:20;;;;;;;9.30;5.45;;;;;;;14.67;100.00;101195.34;5036083;28;20028;-81
2023/07/22 10:59:10;;;;;;;7.53;5.78;;;;;;;14.67;100.00;101197.19;5033977;28;20049;-83
2023/07/22 11:01:56;;;;;;;8.63;5.85;;;;;;;14.73;100.00;101195.97;5007646;28;20224;-82
2023/07/22 11:04:43;;;;;;;9.75;6.00;;;;;;;14.72;100.00;101195.13;5020342;28;20121;-85
2023/07/22 11:07:47;;;;;;;10.63;5.82;;;;;;;14.68;100.00;101185.56;5022543;28;20621;-82
2023/07/22 11:10:33;;;;;;;7.20;5.35;;;;;;;14.58;100.00;101185.25;5002814;28;20028;-84
2023/07/22 11:13:27;;;;;;;9.05;5.57;;;;;;;14.56;100.00;101188.94;5022558;28;21969;-82
2023/07/22 11:16:13;;;;;;;7.28;5.10;;;;;;;14.58;100.00;101187.91;5025003;28;20058;-82
2023/07/22 11:18:58;;;;;;;6.72;4.43;;;;;;;14.53;100.00;101180.19;5020325;28;20049;-82
2023/07/22 11:21:45;;;;;;;7.35;4.35;;;;;;;14.53;100.00;101177.50;5033910;28;20052;-84
2023/07/22 11:24:33;;;;;;;9.27;4.57;;;;;;;14.57;100.00;101177.31;5005234;28;20099;-83
2023/07/22 11:27:19;;;;;;;8.50;4.53;;;;;;;14.61;100.00;101178.88;5024443;28;20051;-82
2023/07/22 11:30:07;;;;;;;6.60;4.57;;;;;;;14.67;100.00;101166.03;5033283;28;20127;-81
2023/07/22 11:32:57;;;;;;;8.82;5.88;;;;;;;14.72;100.00;101165.81;5022434;28;20086;-85
2023/07/22 11:35:43;;;;;;;9.88;5.72;;;;;;;14.83;100.00;101161.69;5034469;28;20727;-81
2023/07/22 11:38:32;;;;;;;8.85;5.65;;;;;;;14.86;100.00;101161.50;5010117;28;20041;-80
2023/07/22 11:41:17;;;;;;;8.02;6.10;;;;;;;14.91;100.00;101160.28;5020390;28;20522;-82
2023/07/22 11:44:09;;;;;;;10.30;6.53;;;;;;;14.94;100.00;101175.25;5017133;28;20037;-81
2023/07/22 11:46:57;;;;;;;11.05;6.75;;;;;;;14.91;100.00;101168.28;5031256;28;20053;-80
2023/07/22 11:49:47;;;;;;;11.13;7.57;;;;;;;14.89;100.00;101172.84;5033031;28;20123;-83
2023/07/22 11:52:33;;;;;;;10.00;6.72;;;;;;;14.84;100.00;101174.91;5007130;28;20039;-86
2023/07/22 11:55:23;;;;;;;12.15;7.60;;;;;;;14.77;100.00;101169.06;4994634;28;20505;-88
2023/07/22 11:58:09;;;;;;;10.50;7.32;;;;;;;14.82;100.00;101159.97;5039997;28;20921;-88
2023/07/22 12:01:07;;;;;;;13.15;8.20;;;;;;;14.93;100.00;101160.19;5022286;28;20040;-87
2023/07/22 12:03:56;;;;;;;11.48;7.15;;;;;;;15.00;100.00;101158.00;5035231;28;20091;-86
2023/07/22 12:06:42;;;;;;;12.02;7.13;;;;;;;15.15;100.00;101153.59;5021017;28;20083;-86
2023/07/22 12:09:29;;;;;;;13.13;8.38;;;;;;;15.33;100.00;101144.47;5021033;28;20111;-89
2023/07/22 12:12:15;;;;;;;13.50;8.07;;;;;;;15.58;100.00;101142.94;5026766;28;20048;-89
2023/07/22 12:15:20;;;;;;;15.57;9.05;;;;;;;15.86;100.00;101138.56;5028691;28;20037;-91
2023/07/22 12:18:19;;;;;;;;;;;;;;;;;;;;;
2023/07/22 12:21:10;;;;;;;15.32;9.13;;;;;;;16.35;100.00;101128.34;5053427;28;20021;-93
2023/07/22 12:24:12;;;;;;;15.88;8.98;;;;;;;16.36;100.00;101131.91;5014584;28;20056;-89
2023/07/22 12:27:00;;;;;;;14.93;8.80;;;;;;;16.38;100.00;101130.84;5058500;28;20048;-93
2023/07/22 12:29:48;;;;;;;12.85;7.93;;;;;;;16.42;100.00;101129.69;5014651;28;20076;-89
2023/07/22 12:32:39;;;;;;;11.25;7.13;;;;;;;16.23;100.00;101143.38;5015027;28;20036;-93
2023/07/22 12:35:28;;;;;;;11.13;7.55;;;;;;;16.07;100.00;101138.16;5015911;28;20045;-90
2023/07/22 12:38:14;;;;;;;10.52;6.13;;;;;;;16.00;100.00;101140.38;4999215;28;20184;-88
2023/07/22 12:41:03;;;;;;;10.65;6.25;;;;;;;16.04;100.00;101138.38;5040589;28;20041;-89
2023/07/22 12:43:49;;;;;;;9.95;5.47;;;;;;;16.01;100.00;101138.56;5036192;28;20048;-93